CYUL

Montreal/Pierre Elliott Trudeau International Airport

Airport
ICAO code
CYUL
IATA Code
YUL
Summary
ICAO Region
NAM
ICAO Territory
Location

Dorval, Quebec,

Serving
Montreal
Elevation
118 ft
Coordinates
45° 28' 6" N , 73° 44' 31" W
KCC
Dfb
Airport LOS
Parallel Runway Operation
Metar
Observation
CYUL 120200Z 32010KT 15SM FEW150 20/10 A2996 RMK AC1 AC TR SLP148 DENSITY ALT 700FT
Station
Montreal / Pierre Elliot Trudeau International Airport, Que
Date/Time
2022-08-12 02:00:00
Wind direction
320°
Wind speed
10 kts
Lowest cloud amount
few clouds
Temperature
20°C
Dew point
10°C
Humidity
52%
Weather condition
n/a

Description

Montréal-Pierre Elliott Trudeau International Airport, formerly known as Montréal-Dorval International Airport, is located in the city of Dorval, on the Island of Montreal, 20 km from Montreal's downtown core. It is the international airport serving Greater Montreal, along with the regions of northern Vermont and New York.

Climatology

Humid Continental climate (Köppen climate classification Dfb) - The humid continental climate is marked by variable weather patterns and a large seasonal temperature variance. Summers are often warm and humid with frequent thunderstorms and winters can be very cold with frequent snowfall and persistent snow cover.

Runways

Designator Length Width Surface Rops
10/28 2134 61 ASP Yes/Yes
06R/24L 2926 61 ASP Yes/Yes
06L/24R 3353 61 ASP Yes/Yes

SKYbrary Partners:

Safety knowledge contributed by: